createdAt,value
2018-04-17T00:01:34.925Z,10.90
2018-04-17T00:04:03.268Z,10.90
2018-04-17T00:06:30.872Z,10.90
2018-04-17T00:08:59.225Z,10.90
2018-04-17T00:11:26.845Z,10.90
2018-04-17T00:13:54.510Z,10.90
2018-04-17T00:16:22.117Z,10.90
2018-04-17T00:18:50.471Z,10.70
2018-04-17T00:21:18.051Z,10.70
2018-04-17T00:23:45.660Z,10.60
2018-04-17T00:26:13.253Z,10.50
2018-04-17T00:28:40.862Z,10.40
2018-04-17T00:31:08.450Z,10.40
2018-04-17T00:33:36.049Z,10.30
2018-04-17T00:36:03.775Z,10.30
2018-04-17T00:38:31.360Z,10.20
2018-04-17T00:40:58.991Z,10.20
2018-04-17T00:43:26.581Z,10.20
2018-04-17T00:45:54.176Z,10.20
2018-04-17T00:48:22.552Z,10.10
2018-04-17T00:50:50.895Z,10.00
2018-04-17T00:53:30.160Z,10.00
2018-04-17T00:55:58.508Z,9.90
2018-04-17T00:58:26.114Z,9.90
2018-04-17T01:00:54.459Z,9.80
2018-04-17T01:03:23.546Z,9.70
2018-04-17T01:05:51.149Z,9.80
2018-04-17T01:08:19.495Z,9.70
2018-04-17T01:10:47.107Z,9.70
2018-04-17T01:13:14.687Z,9.70
2018-04-17T01:15:42.294Z,9.70
2018-04-17T01:18:10.682Z,9.70
2018-04-17T01:20:39.023Z,9.60
2018-04-17T01:23:06.628Z,9.60
2018-04-17T01:25:34.976Z,9.50
2018-04-17T01:28:02.561Z,9.50
2018-04-17T01:30:30.930Z,9.40
2018-04-17T01:32:59.294Z,9.40
2018-04-17T01:35:26.922Z,9.40
2018-04-17T01:37:54.535Z,9.40
2018-04-17T01:40:22.888Z,9.40
2018-04-17T01:42:50.501Z,9.40
2018-04-17T01:45:24.749Z,9.40
2018-04-17T01:47:52.397Z,9.40
2018-04-17T01:50:19.974Z,9.40
2018-04-17T01:52:47.569Z,9.40
2018-04-17T01:55:15.407Z,9.50
2018-04-17T01:57:43.011Z,9.50
2018-04-17T02:00:11.360Z,9.40
2018-04-17T02:02:38.975Z,9.40
2018-04-17T02:05:06.560Z,9.40
2018-04-17T02:07:34.172Z,9.40
2018-04-17T02:10:02.543Z,9.40
2018-04-17T02:12:30.148Z,9.30
2018-04-17T02:14:57.736Z,9.30
2018-04-17T02:17:25.344Z,9.30
2018-04-17T02:19:52.916Z,9.20
2018-04-17T02:22:20.513Z,9.20
2018-04-17T02:24:48.144Z,9.10
2018-04-17T02:27:15.728Z,9.00
2018-04-17T02:29:43.321Z,9.00
2018-04-17T02:32:10.937Z,8.90
2018-04-17T02:34:42.604Z,8.90
2018-04-17T02:37:10.258Z,8.90
2018-04-17T02:39:37.852Z,8.90
2018-04-17T02:42:05.448Z,8.90
2018-04-17T02:44:33.074Z,8.90
2018-04-17T02:47:00.652Z,8.80
2018-04-17T02:49:28.996Z,8.70
2018-04-17T02:51:56.603Z,8.70
2018-04-17T02:54:25.981Z,8.70
2018-04-17T02:56:53.571Z,8.70
2018-04-17T02:59:21.179Z,8.60
2018-04-17T03:01:48.771Z,8.60
2018-04-17T03:04:17.125Z,8.50
2018-04-17T03:06:44.739Z,8.50
2018-04-17T03:09:12.320Z,8.50
2018-04-17T03:11:39.933Z,8.40
2018-04-17T03:14:08.314Z,8.40
2018-04-17T03:16:36.662Z,8.40
2018-04-17T03:19:04.319Z,8.40
2018-04-17T03:21:32.700Z,8.30
2018-04-17T03:24:00.283Z,8.30
2018-04-17T03:26:27.906Z,8.30
2018-04-17T03:28:55.511Z,8.30
2018-04-17T03:31:23.092Z,8.30
2018-04-17T03:33:51.785Z,8.20
2018-04-17T03:36:19.370Z,8.20
2018-04-17T03:38:46.954Z,8.20
2018-04-17T03:41:14.572Z,8.10
2018-04-17T03:43:42.150Z,8.10
2018-04-17T03:46:09.757Z,8.10
2018-04-17T03:48:38.109Z,8.00
2018-04-17T03:51:05.692Z,8.00
2018-04-17T03:53:33.299Z,8.00
2018-04-17T03:56:00.881Z,7.90
2018-04-17T03:58:29.347Z,7.90
2018-04-17T04:00:56.931Z,7.80
2018-04-17T04:03:24.515Z,7.80
2018-04-17T04:05:52.128Z,7.70
2018-04-17T04:08:19.708Z,7.60
2018-04-17T04:10:47.314Z,7.60
2018-04-17T04:13:15.656Z,7.50
2018-04-17T04:15:43.252Z,7.50
2018-04-17T04:18:23.400Z,7.50
2018-04-17T04:21:04.506Z,7.50
2018-04-17T04:23:44.071Z,7.40
2018-04-17T04:26:23.688Z,7.40
2018-04-17T04:28:51.293Z,7.40
2018-04-17T04:31:18.875Z,7.40
2018-04-17T04:33:46.487Z,7.40
2018-04-17T04:36:14.081Z,7.30
2018-04-17T04:38:41.669Z,7.30
2018-04-17T04:41:10.063Z,7.40
2018-04-17T04:43:37.640Z,7.40
2018-04-17T04:46:08.529Z,7.40
2018-04-17T04:48:36.113Z,7.40
2018-04-17T04:51:04.460Z,7.40
2018-04-17T04:53:32.082Z,7.40
2018-04-17T04:55:59.681Z,7.40
2018-04-17T04:58:27.292Z,7.50
2018-04-17T05:00:54.907Z,7.50
2018-04-17T05:03:22.489Z,7.50
2018-04-17T05:05:50.863Z,7.60
2018-04-17T05:08:19.212Z,7.50
2018-04-17T05:10:46.816Z,7.60
2018-04-17T05:13:19.151Z,7.60
2018-04-17T05:15:46.759Z,7.60
2018-04-17T05:18:14.361Z,7.70
2018-04-17T05:20:41.951Z,7.70
2018-04-17T05:23:09.564Z,7.80
2018-04-17T05:25:37.156Z,7.80
2018-04-17T05:28:04.776Z,7.80
2018-04-17T05:30:32.359Z,8.00
2018-04-17T05:32:59.976Z,8.00
2018-04-17T05:35:28.392Z,8.10
2018-04-17T05:37:55.979Z,8.10
2018-04-17T05:40:23.591Z,8.20
2018-04-17T05:42:51.183Z,8.30
2018-04-17T05:45:23.789Z,8.30
2018-04-17T05:47:51.367Z,8.50
2018-04-17T05:50:19.728Z,8.70
2018-04-17T05:52:47.337Z,8.70
2018-04-17T05:55:14.924Z,8.90
2018-04-17T05:57:42.535Z,9.20
2018-04-17T06:00:10.921Z,9.60
2018-04-17T06:02:39.454Z,9.60
2018-04-17T06:05:07.124Z,9.70
2018-04-17T06:07:34.700Z,9.80
2018-04-17T06:10:03.075Z,9.80
2018-04-17T06:12:30.666Z,9.80
2018-04-17T06:14:58.256Z,9.90
2018-04-17T06:17:25.881Z,9.90
2018-04-17T06:19:54.222Z,10.10
2018-04-17T06:22:21.840Z,10.10
2018-04-17T06:24:49.433Z,10.10
2018-04-17T06:27:17.020Z,10.20
2018-04-17T06:29:44.622Z,10.40
2018-04-17T06:32:12.211Z,10.60
2018-04-17T06:34:39.820Z,10.90
2018-04-17T06:37:08.172Z,11.20
2018-04-17T06:39:35.768Z,11.10
2018-04-17T06:42:04.176Z,11.40
2018-04-17T06:44:31.760Z,11.40
2018-04-17T06:46:59.371Z,11.50
2018-04-17T06:49:26.978Z,11.70
2018-04-17T06:51:54.561Z,11.80
2018-04-17T06:54:22.172Z,11.90
2018-04-17T06:56:49.775Z,12.00
2018-04-17T06:59:17.385Z,12.10
2018-04-17T07:01:44.993Z,12.20
2018-04-17T07:04:12.607Z,12.30
2018-04-17T07:06:40.219Z,12.40
2018-04-17T07:09:07.809Z,12.50
2018-04-17T07:11:36.237Z,12.60
2018-04-17T07:14:03.803Z,12.60
2018-04-17T07:16:31.391Z,12.70
2018-04-17T07:18:59.031Z,12.80
2018-04-17T07:21:26.626Z,12.90
2018-04-17T07:23:55.020Z,13.10
2018-04-17T07:26:23.376Z,13.20
2018-04-17T07:28:50.965Z,13.20
2018-04-17T07:31:35.645Z,13.30
2018-04-17T07:34:03.237Z,13.30
2018-04-17T07:36:30.901Z,13.40
2018-04-17T07:38:58.499Z,13.50
2018-04-17T07:41:26.856Z,13.70
2018-04-17T07:43:54.472Z,13.70
2018-04-17T07:46:22.065Z,13.80
2018-04-17T07:48:50.612Z,13.90
2018-04-17T07:51:18.236Z,13.90
2018-04-17T07:53:46.585Z,14.00
2018-04-17T07:56:14.176Z,14.10
2018-04-17T07:58:42.560Z,14.30
2018-04-17T08:01:11.207Z,14.30
2018-04-17T08:03:38.811Z,14.30
2018-04-17T08:06:07.190Z,14.50
2018-04-17T08:08:34.808Z,14.40
2018-04-17T08:11:02.407Z,14.60
2018-04-17T08:13:31.661Z,14.80
2018-04-17T08:15:59.257Z,14.80
2018-04-17T08:18:27.616Z,15.00
2018-04-17T08:20:55.236Z,15.00
2018-04-17T08:23:22.829Z,15.10
2018-04-17T08:25:50.425Z,15.20
2018-04-17T08:28:18.816Z,15.30
2018-04-17T08:30:46.409Z,15.20
2018-04-17T08:33:14.008Z,15.30
2018-04-17T08:35:42.431Z,15.50
2018-04-17T08:38:10.033Z,15.50
2018-04-17T08:40:37.623Z,15.50
2018-04-17T08:43:06.004Z,15.70
2018-04-17T08:45:34.356Z,15.70
2018-04-17T08:48:01.944Z,15.70
2018-04-17T08:50:30.337Z,15.80
2018-04-17T08:52:57.955Z,15.80
2018-04-17T08:55:25.560Z,15.90
2018-04-17T08:57:53.194Z,15.90
2018-04-17T09:00:20.785Z,16.00
2018-04-17T09:02:48.381Z,16.00
2018-04-17T09:05:16.038Z,16.10
2018-04-17T09:07:43.615Z,16.10
2018-04-17T09:10:11.215Z,16.30
2018-04-17T09:12:39.606Z,16.60
2018-04-17T09:15:07.200Z,16.60
2018-04-17T09:17:37.868Z,16.60
2018-04-17T09:20:05.492Z,16.70
2018-04-17T09:22:33.077Z,16.70
2018-04-17T09:25:00.677Z,16.70
2018-04-17T09:27:28.349Z,16.80
2018-04-17T09:29:55.947Z,16.80
2018-04-17T09:32:23.559Z,16.90
2018-04-17T09:34:51.204Z,16.90
2018-04-17T09:37:19.572Z,17.20
2018-04-17T09:39:47.156Z,17.20
2018-04-17T09:42:15.541Z,17.40
2018-04-17T09:44:43.137Z,17.40
2018-04-17T09:47:10.740Z,17.50
2018-04-17T09:49:39.131Z,17.70
2018-04-17T09:52:12.401Z,17.80
2018-04-17T09:54:40.020Z,17.70
2018-04-17T09:57:07.612Z,17.70
2018-04-17T09:59:35.214Z,17.80
2018-04-17T10:02:03.588Z,18.00
2018-04-17T10:04:31.948Z,18.00
2018-04-17T10:07:00.335Z,18.00
2018-04-17T10:09:28.693Z,18.10
2018-04-17T10:11:56.299Z,18.00
2018-04-17T10:14:23.933Z,18.20
2018-04-17T10:16:52.296Z,18.40
2018-04-17T10:19:19.908Z,18.40
2018-04-17T10:21:47.521Z,18.60
2018-04-17T10:24:15.115Z,18.60
2018-04-17T10:26:43.486Z,18.90
2018-04-17T10:29:11.875Z,18.90
2018-04-17T10:31:40.231Z,18.90
2018-04-17T10:34:08.619Z,19.00
2018-04-17T10:36:36.977Z,19.10
2018-04-17T10:39:04.560Z,19.10
2018-04-17T10:41:32.943Z,19.30
2018-04-17T10:44:01.301Z,19.30
2018-04-17T10:46:28.975Z,19.30
2018-04-17T10:48:56.601Z,19.40
2018-04-17T10:51:32.867Z,19.40
2018-04-17T10:54:00.461Z,19.40
2018-04-17T10:56:28.833Z,19.40
2018-04-17T10:58:56.474Z,19.40
2018-04-17T11:01:24.068Z,19.50
2018-04-17T11:03:52.473Z,19.60
2018-04-17T11:06:20.093Z,19.60
2018-04-17T11:08:47.696Z,19.70
2018-04-17T11:11:15.304Z,19.80
2018-04-17T11:13:42.905Z,19.80
2018-04-17T11:16:10.517Z,19.80
2018-04-17T11:18:43.203Z,19.80
2018-04-17T11:21:10.812Z,19.80
2018-04-17T11:23:38.409Z,19.80
2018-04-17T11:26:06.030Z,19.90
2018-04-17T11:28:33.640Z,20.10
2018-04-17T11:31:01.237Z,20.30
2018-04-17T11:33:29.626Z,20.40
2018-04-17T11:35:57.206Z,20.40
2018-04-17T11:38:24.800Z,20.50
2018-04-17T11:40:53.203Z,20.50
2018-04-17T11:43:20.800Z,20.50
2018-04-17T11:45:48.422Z,20.50
2018-04-17T11:48:16.011Z,20.50
2018-04-17T11:50:43.602Z,20.60
2018-04-17T11:53:11.208Z,20.60
2018-04-17T11:55:38.805Z,20.60
2018-04-17T11:58:06.433Z,20.70
2018-04-17T12:00:34.783Z,20.70
2018-04-17T12:03:02.387Z,20.70
2018-04-17T12:05:30.771Z,20.80
2018-04-17T12:07:58.363Z,20.80
2018-04-17T12:10:25.988Z,20.90
2018-04-17T12:12:54.343Z,20.80
2018-04-17T12:15:21.935Z,20.80
2018-04-17T12:17:49.556Z,20.90
2018-04-17T12:20:17.145Z,21.00
2018-04-17T12:22:45.528Z,21.00
2018-04-17T12:25:13.904Z,21.10
2018-04-17T12:27:42.269Z,21.20
2018-04-17T12:30:09.880Z,21.20
2018-04-17T12:32:37.487Z,21.20
2018-04-17T12:35:05.104Z,21.20
2018-04-17T12:37:32.691Z,21.20
2018-04-17T12:40:00.267Z,21.20
2018-04-17T12:42:27.871Z,21.20
2018-04-17T12:44:55.463Z,21.40
2018-04-17T12:47:23.076Z,21.50
2018-04-17T12:49:50.668Z,21.60
2018-04-17T12:52:18.248Z,21.70
2018-04-17T12:54:45.853Z,21.70
2018-04-17T12:57:13.461Z,21.70
2018-04-17T12:59:41.073Z,21.80
2018-04-17T13:02:09.530Z,21.80
2018-04-17T13:04:37.235Z,21.70
2018-04-17T13:07:04.839Z,21.80
2018-04-17T13:09:32.559Z,21.90
2018-04-17T13:12:00.180Z,22.00
2018-04-17T13:14:27.772Z,21.90
2018-04-17T13:16:55.368Z,22.00
2018-04-17T13:19:22.981Z,22.00
2018-04-17T13:21:51.358Z,22.00
2018-04-17T13:24:20.597Z,22.00
2018-04-17T13:26:48.190Z,22.00
2018-04-17T13:29:15.788Z,22.10
2018-04-17T13:31:44.177Z,22.10
2018-04-17T13:34:11.764Z,22.10
2018-04-17T13:37:03.548Z,22.10
2018-04-17T13:39:31.903Z,22.10
2018-04-17T13:41:59.529Z,22.10
2018-04-17T13:44:27.132Z,22.20
2018-04-17T13:46:54.716Z,22.30
2018-04-17T13:49:23.087Z,22.40
2018-04-17T13:51:51.480Z,22.40
2018-04-17T13:54:19.881Z,22.40
2018-04-17T13:56:47.473Z,22.30
2018-04-17T13:59:15.851Z,22.20
2018-04-17T14:01:43.503Z,22.20
2018-04-17T14:04:11.109Z,22.20
2018-04-17T14:06:41.543Z,22.50
2018-04-17T14:09:25.193Z,22.50
2018-04-17T14:11:52.808Z,22.50
2018-04-17T14:14:20.460Z,22.60
2018-04-17T14:16:48.042Z,22.70
2018-04-17T14:19:15.652Z,22.70
2018-04-17T14:21:44.349Z,22.70
2018-04-17T14:24:11.982Z,22.80
2018-04-17T14:26:39.580Z,22.80
2018-04-17T14:29:07.164Z,22.80
2018-04-17T14:31:34.759Z,22.70
2018-04-17T14:34:03.100Z,22.70
2018-04-17T14:36:30.720Z,22.70
2018-04-17T14:38:58.324Z,22.70
2018-04-17T14:41:25.912Z,22.60
2018-04-17T14:43:54.276Z,22.50
2018-04-17T14:46:21.865Z,22.50
2018-04-17T14:48:49.468Z,22.60
2018-04-17T14:51:17.052Z,22.60
2018-04-17T14:53:44.652Z,22.70
2018-04-17T14:56:12.273Z,22.60
2018-04-17T14:58:39.892Z,22.60
2018-04-17T15:01:07.506Z,22.60
2018-04-17T15:03:35.860Z,22.50
2018-04-17T15:06:03.448Z,22.50
2018-04-17T15:08:31.845Z,22.60
2018-04-17T15:11:00.197Z,22.70
2018-04-17T15:13:28.580Z,22.80
2018-04-17T15:15:56.161Z,22.80
2018-04-17T15:18:23.760Z,22.80
2018-04-17T15:20:51.391Z,22.70
2018-04-17T15:23:18.986Z,22.70
2018-04-17T15:25:46.613Z,22.70
2018-04-17T15:28:14.201Z,22.70
2018-04-17T15:30:41.823Z,22.70
2018-04-17T15:33:10.196Z,22.30
2018-04-17T15:35:38.550Z,22.20
2018-04-17T15:38:06.156Z,22.20
2018-04-17T15:40:33.739Z,22.30
2018-04-17T15:43:01.329Z,22.20
2018-04-17T15:45:28.958Z,22.20
2018-04-17T15:47:56.558Z,22.30
2018-04-17T15:50:24.168Z,22.30
2018-04-17T15:52:51.752Z,22.30
2018-04-17T15:55:19.327Z,22.30
2018-04-17T15:57:46.929Z,22.30
2018-04-17T16:00:15.279Z,22.10
2018-04-17T16:02:42.897Z,22.10
2018-04-17T16:05:10.503Z,22.10
2018-04-17T16:07:38.088Z,22.10
2018-04-17T16:10:06.475Z,22.10
2018-04-17T16:12:34.055Z,22.10
2018-04-17T16:15:01.677Z,22.10
2018-04-17T16:17:30.036Z,22.10
2018-04-17T16:19:57.632Z,22.10
2018-04-17T16:22:25.245Z,22.00
2018-04-17T16:24:52.832Z,21.90
2018-04-17T16:27:21.211Z,21.80
2018-04-17T16:29:48.804Z,21.80
2018-04-17T16:32:16.387Z,21.70
2018-04-17T16:34:44.009Z,21.60
2018-04-17T16:37:12.361Z,21.30
2018-04-17T16:39:39.976Z,21.30
2018-04-17T16:42:07.584Z,21.20
2018-04-17T16:44:35.167Z,21.10
2018-04-17T16:47:03.543Z,21.00
2018-04-17T16:49:31.910Z,20.90
2018-04-17T16:51:59.535Z,20.90
2018-04-17T16:54:27.124Z,20.90
2018-04-17T16:56:54.723Z,20.90
2018-04-17T16:59:22.347Z,20.80
2018-04-17T17:01:49.935Z,20.80
2018-04-17T17:04:18.310Z,20.60
2018-04-17T17:06:46.657Z,20.70
2018-04-17T17:09:14.244Z,20.60
2018-04-17T17:11:42.620Z,20.50
2018-04-17T17:14:10.984Z,20.30
2018-04-17T17:16:38.601Z,20.30
2018-04-17T17:19:06.194Z,20.30
2018-04-17T17:21:33.776Z,20.20
2018-04-17T17:24:01.442Z,20.20
2018-04-17T17:26:29.047Z,20.10
2018-04-17T17:28:56.718Z,20.00
2018-04-17T17:31:24.342Z,19.90
2018-04-17T17:33:52.692Z,19.70
2018-04-17T17:36:20.310Z,19.70
2018-04-17T17:38:47.907Z,19.70
2018-04-17T17:41:15.515Z,19.60
2018-04-17T17:43:43.209Z,19.50
2018-04-17T17:46:10.798Z,19.50
2018-04-17T17:48:38.404Z,19.40
2018-04-17T17:51:06.007Z,19.30
2018-04-17T17:53:34.480Z,19.00
2018-04-17T17:56:02.063Z,19.00
2018-04-17T17:58:29.649Z,18.80
2018-04-17T18:00:57.275Z,18.70
2018-04-17T18:03:24.863Z,18.60
2018-04-17T18:05:53.242Z,18.30
2018-04-17T18:08:21.591Z,18.10
2018-04-17T18:10:49.183Z,18.20
2018-04-17T18:13:17.564Z,18.00
2018-04-17T18:15:45.924Z,17.90
2018-04-17T18:18:13.546Z,17.90
2018-04-17T18:20:41.255Z,17.70
2018-04-17T18:23:09.665Z,17.50
2018-04-17T18:25:37.315Z,17.50
2018-04-17T18:28:05.683Z,17.30
2018-04-17T18:30:34.060Z,17.30
2018-04-17T18:33:02.403Z,17.30
2018-04-17T18:35:31.020Z,17.20
2018-04-17T18:37:58.791Z,17.30
2018-04-17T18:40:27.136Z,17.20
2018-04-17T18:42:54.753Z,17.10
2018-04-17T18:45:22.343Z,17.10
2018-04-17T18:47:49.927Z,17.00
2018-04-17T18:50:25.543Z,16.90
2018-04-17T18:52:53.136Z,17.00
2018-04-17T18:55:20.815Z,17.00
2018-04-17T18:57:54.965Z,16.80
2018-04-17T19:00:22.577Z,16.80
2018-04-17T19:02:50.172Z,16.80
2018-04-17T19:05:17.868Z,16.70
2018-04-17T19:07:45.481Z,16.60
2018-04-17T19:10:13.858Z,16.60
2018-04-17T19:12:42.258Z,16.60
2018-04-17T19:15:09.848Z,16.60
2018-04-17T19:17:37.455Z,16.60
2018-04-17T19:20:05.910Z,16.50
2018-04-17T19:22:38.613Z,16.50
2018-04-17T19:25:07.049Z,16.30
2018-04-17T19:27:34.672Z,16.30
2018-04-17T19:30:23.543Z,16.20
2018-04-17T19:32:51.168Z,16.10
2018-04-17T19:35:18.756Z,16.00
2018-04-17T19:37:47.131Z,15.80
2018-04-17T19:40:15.538Z,15.60
2018-04-17T19:45:41.897Z,15.60
2018-04-17T19:48:09.516Z,15.50
2018-04-17T19:50:37.874Z,15.40
2018-04-17T19:53:06.461Z,15.40
2018-04-17T19:55:34.059Z,15.40
2018-04-17T19:58:02.600Z,15.30
2018-04-17T20:00:31.210Z,15.30
2018-04-17T20:03:08.057Z,15.10
2018-04-17T20:05:59.120Z,15.10
2018-04-17T20:08:26.764Z,15.00
2018-04-17T20:10:55.160Z,14.90
2018-04-17T20:13:26.760Z,14.90
2018-04-17T20:15:54.383Z,14.90
2018-04-17T20:18:22.041Z,14.80
2018-04-17T20:20:49.629Z,14.70
2018-04-17T20:23:23.570Z,14.60
2018-04-17T20:25:51.156Z,14.40
2018-04-17T20:28:19.535Z,14.30
2018-04-17T20:30:47.884Z,14.20
2018-04-17T20:33:16.258Z,14.10
2018-04-17T20:35:43.900Z,14.00
2018-04-17T20:38:11.516Z,14.00
2018-04-17T20:40:39.895Z,13.80
2018-04-17T20:43:07.508Z,13.90
2018-04-17T20:45:35.104Z,13.80
2018-04-17T20:48:16.707Z,13.60
2018-04-17T20:50:45.055Z,13.50
2018-04-17T20:53:12.688Z,13.50
2018-04-17T20:55:40.276Z,13.50
2018-04-17T20:58:07.859Z,13.50
2018-04-17T21:00:40.116Z,13.50
2018-04-17T21:03:07.721Z,13.50
2018-04-17T21:05:35.340Z,13.40
2018-04-17T21:08:11.038Z,13.30
2018-04-17T21:10:38.646Z,13.30
2018-04-17T21:13:07.010Z,13.20
2018-04-17T21:15:34.604Z,13.20
2018-04-17T21:18:06.361Z,13.10
2018-04-17T21:20:34.711Z,13.00
2018-04-17T21:23:02.330Z,13.00
2018-04-17T21:25:29.919Z,13.00
2018-04-17T21:27:57.514Z,12.90
2018-04-17T21:30:25.887Z,12.90
2018-04-17T21:32:53.516Z,12.90
2018-04-17T21:35:21.135Z,12.80
2018-04-17T21:37:48.733Z,12.80
2018-04-17T21:40:16.315Z,12.80
2018-04-17T21:42:43.964Z,12.70
2018-04-17T21:45:11.574Z,12.60
2018-04-17T21:47:39.195Z,12.60
2018-04-17T21:50:06.782Z,12.50
2018-04-17T21:52:35.132Z,12.40
2018-04-17T21:55:02.747Z,12.40
2018-04-17T21:57:30.332Z,12.40
2018-04-17T21:59:57.944Z,12.30
2018-04-17T22:02:26.379Z,12.40
2018-04-17T22:04:53.959Z,12.30
2018-04-17T22:07:21.567Z,12.30
2018-04-17T22:09:49.153Z,12.40
2018-04-17T22:12:16.810Z,12.40
2018-04-17T22:14:44.397Z,12.30
2018-04-17T22:17:15.432Z,12.30
2018-04-17T22:19:43.039Z,12.30
2018-04-17T22:22:11.387Z,12.20
2018-04-17T22:24:39.012Z,12.10
2018-04-17T22:27:06.600Z,12.10
2018-04-17T22:29:34.180Z,12.00
2018-04-17T22:32:01.794Z,11.90
2018-04-17T22:34:29.400Z,11.80
2018-04-17T22:36:57.064Z,11.70
2018-04-17T22:39:24.663Z,11.70
2018-04-17T22:41:52.259Z,11.60
2018-04-17T22:44:19.863Z,11.60
2018-04-17T22:46:47.499Z,11.50
2018-04-17T22:49:15.117Z,11.50
2018-04-17T22:51:42.705Z,11.50
2018-04-17T22:54:10.294Z,11.40
2018-04-17T22:56:37.901Z,11.40
2018-04-17T22:59:05.500Z,11.40
2018-04-17T23:01:33.113Z,11.40
2018-04-17T23:04:00.709Z,11.30
2018-04-17T23:06:28.291Z,11.30
2018-04-17T23:08:55.888Z,11.20
2018-04-17T23:11:23.477Z,11.20
2018-04-17T23:13:51.092Z,11.10
2018-04-17T23:16:19.450Z,11.10
2018-04-17T23:18:47.038Z,11.00
2018-04-17T23:21:15.411Z,11.00
2018-04-17T23:23:43.776Z,11.00
2018-04-17T23:26:11.397Z,10.90
2018-04-17T23:28:38.977Z,11.00
2018-04-17T23:31:07.356Z,10.90
2018-04-17T23:33:34.986Z,10.90
2018-04-17T23:36:02.580Z,10.80
2018-04-17T23:38:30.203Z,10.80
2018-04-17T23:40:57.800Z,10.80
2018-04-17T23:43:25.408Z,10.70
2018-04-17T23:45:53.031Z,10.70
2018-04-17T23:48:20.656Z,10.70
2018-04-17T23:50:48.280Z,10.60
2018-04-17T23:53:16.631Z,10.50
2018-04-17T23:55:44.230Z,10.50
2018-04-17T23:58:11.852Z,10.50
